Time;durP1;ratioP1;P1;durP2;ratioP2;P2;SDS_P1;SDS_P2;PMS_P1;PMS_P2;Temp;Humidity;BMP_temperature;BMP_pressure;BME280_temperature;BME280_humidity;BME280_pressure;Samples;Min_cycle;Max_cycle;Signal;HPM_P1;HPM_P2
2024/02/06 00:01:28;;;;;;;11.70;5.30;;;8.30;99.70;;;;;;5029055;28;20436;-78
2024/02/06 00:03:54;;;;;;;13.90;5.63;;;8.40;98.50;;;;;;5030743;28;20028;-78
2024/02/06 00:06:21;;;;;;;9.45;4.78;;;8.40;99.30;;;;;;5030468;28;20032;-78
2024/02/06 00:08:46;;;;;;;13.52;5.47;;;8.40;97.20;;;;;;5030575;28;20026;-78
2024/02/06 00:11:13;;;;;;;12.68;5.15;;;8.40;96.80;;;;;;5029135;28;20109;-77
2024/02/06 00:13:39;;;;;;;9.27;4.05;;;8.50;96.10;;;;;;5029158;28;20057;-78
2024/02/06 00:16:12;;;;;;;10.40;4.90;;;8.50;96.50;;;;;;5028848;28;20022;-78
2024/02/06 00:18:38;;;;;;;11.10;4.88;;;8.50;95.80;;;;;;5030548;28;20100;-79
2024/02/06 00:21:04;;;;;;;8.38;5.28;;;8.50;94.60;;;;;;5030052;28;20100;-78
2024/02/06 00:23:30;;;;;;;10.90;4.68;;;8.60;95.20;;;;;;5029295;28;20075;-78
2024/02/06 00:25:55;;;;;;;15.13;5.35;;;8.50;95.40;;;;;;5029962;28;20437;-78
2024/02/06 00:28:21;;;;;;;9.98;5.15;;;8.50;96.30;;;;;;5029140;28;20059;-78
2024/02/06 00:30:47;;;;;;;11.40;5.43;;;8.50;95.80;;;;;;5029998;28;20018;-78
2024/02/06 00:33:14;;;;;;;14.88;5.28;;;8.40;95.20;;;;;;5030278;28;20029;-78
2024/02/06 00:35:39;;;;;;;10.70;5.35;;;8.50;94.40;;;;;;5030034;28;20022;-78
2024/02/06 00:38:05;;;;;;;7.85;4.53;;;8.50;94.60;;;;;;5030171;28;20040;-78
2024/02/06 00:40:31;;;;;;;9.02;4.22;;;8.40;95.30;;;;;;5030051;28;20022;-78
2024/02/06 00:42:56;;;;;;;12.27;4.78;;;8.40;94.90;;;;;;5030233;28;20053;-78
2024/02/06 00:45:22;;;;;;;11.73;5.00;;;8.40;93.90;;;;;;5029605;28;20475;-78
2024/02/06 00:47:49;;;;;;;9.20;4.80;;;8.40;94.70;;;;;;5029156;28;20025;-78
2024/02/06 00:50:16;;;;;;;11.40;4.88;;;8.40;95.10;;;;;;5029824;28;20017;-78
2024/02/06 00:52:42;;;;;;;12.57;5.47;;;8.40;95.50;;;;;;5028653;28;20060;-78
2024/02/06 00:55:08;;;;;;;12.10;5.65;;;8.30;96.40;;;;;;5029480;28;20057;-78
2024/02/06 00:57:33;;;;;;;11.65;4.85;;;8.40;95.60;;;;;;5012158;28;20037;-78
2024/02/06 00:59:59;;;;;;;6.55;4.85;;;8.30;96.20;;;;;;5029629;28;20026;-78
2024/02/06 01:02:25;;;;;;;9.00;4.97;;;8.40;95.50;;;;;;5029800;28;20470;-77
2024/02/06 01:04:51;;;;;;;9.50;4.90;;;8.40;94.40;;;;;;5029507;28;20018;-78
2024/02/06 01:07:20;;;;;;;11.63;4.65;;;8.30;96.00;;;;;;5029822;28;20493;-78
2024/02/06 01:09:46;;;;;;;13.15;6.35;;;8.30;97.40;;;;;;5029574;28;20030;-78
2024/02/06 01:12:12;;;;;;;11.60;5.10;;;8.30;95.60;;;;;;5029738;28;20436;-78
2024/02/06 01:14:37;;;;;;;12.38;5.43;;;8.30;96.90;;;;;;5028227;28;20037;-78
2024/02/06 01:17:05;;;;;;;10.05;5.30;;;8.30;96.10;;;;;;5029580;28;20104;-78
2024/02/06 01:19:31;;;;;;;18.55;6.47;;;8.30;96.00;;;;;;5028224;28;20026;-78
2024/02/06 01:21:56;;;;;;;17.02;5.15;;;8.20;96.60;;;;;;5026389;28;20037;-78
2024/02/06 01:24:22;;;;;;;13.15;5.43;;;8.30;96.00;;;;;;5028006;28;20044;-78
2024/02/06 01:26:48;;;;;;;12.30;4.68;;;8.30;96.30;;;;;;5027937;28;20174;-78
2024/02/06 01:29:14;;;;;;;9.90;4.35;;;8.30;95.90;;;;;;5029220;28;20102;-77
2024/02/06 01:31:40;;;;;;;8.20;4.68;;;8.20;96.10;;;;;;5029281;28;20446;-79
2024/02/06 01:34:06;;;;;;;10.85;4.50;;;8.30;96.00;;;;;;5028391;28;20070;-78
2024/02/06 01:36:34;;;;;;;14.43;5.38;;;8.30;94.10;;;;;;5028953;28;20022;-78
2024/02/06 01:39:00;;;;;;;13.95;5.32;;;8.30;94.90;;;;;;5028029;28;20029;-78
2024/02/06 01:41:26;;;;;;;10.80;5.22;;;8.30;94.10;;;;;;5027485;28;20046;-77
2024/02/06 01:43:52;;;;;;;11.07;4.70;;;8.30;94.70;;;;;;5029419;28;20109;-78
2024/02/06 01:46:19;;;;;;;15.35;5.05;;;8.20;93.60;;;;;;5027767;28;20021;-78
2024/02/06 01:48:45;;;;;;;6.53;4.05;;;8.20;93.50;;;;;;5028078;28;20022;-77
2024/02/06 01:51:11;;;;;;;10.45;4.22;;;8.20;94.00;;;;;;5029227;28;20032;-78
2024/02/06 01:53:37;;;;;;;11.73;5.00;;;8.20;93.90;;;;;;5029058;28;20431;-78
2024/02/06 01:56:04;;;;;;;10.52;4.38;;;8.20;93.70;;;;;;5029106;28;20116;-78
2024/02/06 01:58:29;;;;;;;11.30;4.03;;;8.20;92.90;;;;;;5028916;28;20068;-78
2024/02/06 02:00:55;;;;;;;11.02;5.10;;;8.20;93.70;;;;;;5030371;28;20045;-78
2024/02/06 02:03:22;;;;;;;13.43;5.07;;;8.20;93.70;;;;;;5031251;28;20032;-78
2024/02/06 02:05:48;;;;;;;8.23;5.00;;;8.20;94.20;;;;;;5032508;28;20030;-78
2024/02/06 02:08:15;;;;;;;8.05;5.30;;;8.10;93.50;;;;;;5032377;28;20025;-78
2024/02/06 02:10:41;;;;;;;9.40;4.28;;;8.10;93.50;;;;;;5031188;28;20052;-78
2024/02/06 02:13:07;;;;;;;16.88;5.85;;;8.10;93.70;;;;;;5030843;28;20474;-78
2024/02/06 02:15:33;;;;;;;12.15;4.78;;;8.10;94.40;;;;;;5031009;28;20037;-78
2024/02/06 02:17:59;;;;;;;9.45;4.53;;;8.10;94.40;;;;;;5032149;28;20050;-78
2024/02/06 02:20:24;;;;;;;10.77;4.65;;;8.00;94.60;;;;;;5032398;28;20379;-78
2024/02/06 02:22:50;;;;;;;14.20;4.97;;;8.00;94.70;;;;;;5031925;28;20478;-78
2024/02/06 02:25:16;;;;;;;16.05;5.55;;;8.00;95.60;;;;;;5032326;28;20050;-78
2024/02/06 02:27:43;;;;;;;11.07;5.35;;;8.00;95.30;;;;;;5032028;28;20104;-78
2024/02/06 02:30:10;;;;;;;12.82;5.13;;;7.90;95.50;;;;;;5030723;28;20081;-78
2024/02/06 02:32:37;;;;;;;12.10;4.88;;;8.00;95.30;;;;;;5031805;28;20056;-78
2024/02/06 02:35:02;;;;;;;14.57;5.00;;;7.90;95.20;;;;;;5032094;28;20030;-78
2024/02/06 02:37:28;;;;;;;13.30;5.10;;;7.90;94.50;;;;;;5030497;28;20539;-78
2024/02/06 02:39:54;;;;;;;13.15;5.80;;;7.90;94.80;;;;;;5031052;28;20059;-78
2024/02/06 02:42:20;;;;;;;9.88;5.18;;;7.90;95.30;;;;;;5031736;28;20056;-78
2024/02/06 02:44:45;;;;;;;14.35;5.07;;;7.90;96.00;;;;;;5030691;28;20124;-78
2024/02/06 02:47:11;;;;;;;14.57;5.72;;;7.90;95.40;;;;;;5031766;28;20082;-78
2024/02/06 02:49:37;;;;;;;8.82;5.25;;;7.90;94.90;;;;;;5031701;28;20040;-78
2024/02/06 02:52:02;;;;;;;9.38;4.25;;;7.90;94.20;;;;;;5030370;28;20025;-78
2024/02/06 02:54:28;;;;;;;10.35;5.15;;;7.80;94.30;;;;;;5031662;28;20053;-78
2024/02/06 02:56:57;;;;;;;15.82;6.00;;;7.80;94.20;;;;;;5031500;28;20032;-78
2024/02/06 02:59:23;;;;;;;12.48;4.97;;;7.80;94.00;;;;;;5031759;28;20131;-79
2024/02/06 03:01:48;;;;;;;9.57;4.63;;;7.80;94.50;;;;;;5031366;28;20100;-78
2024/02/06 03:04:14;;;;;;;16.55;5.38;;;7.80;93.90;;;;;;5031682;28;20025;-78
2024/02/06 03:06:40;;;;;;;15.60;5.68;;;7.80;95.90;;;;;;5029941;27;20028;-78
2024/02/06 03:09:06;;;;;;;16.23;4.45;;;7.80;96.30;;;;;;5030151;28;20018;-78
2024/02/06 03:11:31;;;;;;;13.48;5.43;;;7.70;96.20;;;;;;5030025;28;20025;-77
2024/02/06 03:13:57;;;;;;;10.50;4.78;;;7.70;96.70;;;;;;5030242;28;20067;-77
2024/02/06 03:16:22;;;;;;;11.30;5.45;;;7.70;97.10;;;;;;5029944;28;20033;-77
2024/02/06 03:18:48;;;;;;;10.88;5.97;;;7.60;97.80;;;;;;5031352;28;20033;-78
2024/02/06 03:21:14;;;;;;;9.55;5.68;;;7.60;97.50;;;;;;5031127;28;20075;-78
2024/02/06 03:23:39;;;;;;;12.35;4.82;;;7.60;97.80;;;;;;5030992;28;20026;-78
2024/02/06 03:26:05;;;;;;;13.02;5.40;;;7.60;98.80;;;;;;5031243;28;20025;-78
2024/02/06 03:28:31;;;;;;;12.82;5.00;;;7.50;99.30;;;;;;5031181;28;20025;-78
2024/02/06 03:30:57;;;;;;;14.40;5.60;;;7.50;99.90;;;;;;5030714;28;20474;-78
2024/02/06 03:33:25;;;;;;;10.35;5.13;;;7.50;99.90;;;;;;5031254;28;20056;-79
2024/02/06 03:35:51;;;;;;;10.48;5.75;;;7.40;99.90;;;;;;5029556;28;20059;-78
2024/02/06 03:38:18;;;;;;;12.27;5.80;;;7.40;99.90;;;;;;5031190;28;20467;-78
2024/02/06 03:40:44;;;;;;;8.70;5.22;;;7.40;99.90;;;;;;5030920;28;20374;-78
2024/02/06 03:43:10;;;;;;;8.85;5.57;;;7.40;99.90;;;;;;5029773;28;20049;-79
2024/02/06 03:45:36;;;;;;;9.70;5.40;;;7.40;99.90;;;;;;5030677;28;20061;-78
2024/02/06 03:48:02;;;;;;;19.23;6.10;;;7.30;99.90;;;;;;5031152;28;20048;-78
2024/02/06 03:50:27;;;;;;;11.13;5.75;;;7.40;99.90;;;;;;5030798;28;20053;-79
2024/02/06 03:52:53;;;;;;;13.75;6.05;;;7.30;99.90;;;;;;5030925;28;20470;-79
2024/02/06 03:55:18;;;;;;;13.30;6.10;;;7.30;99.90;;;;;;5029437;28;20124;-79
2024/02/06 03:57:44;;;;;;;13.68;6.20;;;7.30;99.90;;;;;;5029576;28;20022;-78
2024/02/06 04:00:11;;;;;;;15.35;6.63;;;7.30;99.90;;;;;;5029452;28;20022;-78
2024/02/06 04:02:37;;;;;;;10.98;6.57;;;7.20;99.90;;;;;;5030599;28;20026;-78
2024/02/06 04:05:03;;;;;;;16.17;6.75;;;7.20;99.90;;;;;;5030643;28;20489;-78
2024/02/06 04:07:28;;;;;;;15.50;6.57;;;7.20;99.90;;;;;;5029301;28;20090;-78
2024/02/06 04:09:54;;;;;;;10.85;5.82;;;7.20;99.90;;;;;;5030493;28;20075;-78
2024/02/06 04:12:20;;;;;;;11.25;5.80;;;7.10;99.90;;;;;;5029290;28;20532;-78
2024/02/06 04:14:45;;;;;;;17.55;5.80;;;7.10;99.90;;;;;;5030038;28;20048;-78
2024/02/06 04:17:11;;;;;;;11.57;6.30;;;7.10;99.90;;;;;;5029323;28;20382;-78
2024/02/06 04:19:37;;;;;;;17.02;5.80;;;7.10;99.90;;;;;;5030225;28;20033;-78
2024/02/06 04:22:02;;;;;;;13.10;5.88;;;7.10;99.90;;;;;;5030259;28;20056;-78
2024/02/06 04:24:28;;;;;;;9.25;5.72;;;7.00;99.90;;;;;;5030211;28;20026;-77
2024/02/06 04:26:54;;;;;;;8.57;5.03;;;7.00;99.90;;;;;;5029253;28;20014;-78
2024/02/06 04:29:19;;;;;;;9.85;6.15;;;7.00;99.90;;;;;;5029975;28;20021;-78
2024/02/06 04:31:45;;;;;;;19.60;7.05;;;7.00;99.90;;;;;;5030118;28;20364;-78
2024/02/06 04:34:11;;;;;;;13.68;6.28;;;7.00;99.90;;;;;;5030231;28;20035;-78
2024/02/06 04:36:36;;;;;;;14.18;6.05;;;7.00;99.90;;;;;;5028881;28;20068;-78
2024/02/06 04:39:05;;;;;;;11.63;5.68;;;7.00;99.90;;;;;;5029901;28;20034;-78
2024/02/06 04:41:31;;;;;;;13.90;6.75;;;7.00;99.90;;;;;;5028609;28;20045;-79
2024/02/06 04:43:57;;;;;;;12.55;5.93;;;6.90;99.90;;;;;;5028834;28;20048;-77
2024/02/06 04:46:22;;;;;;;15.52;6.03;;;6.90;99.90;;;;;;5028772;28;20584;-78
2024/02/06 04:48:48;;;;;;;23.08;6.82;;;6.90;99.90;;;;;;5030000;28;20040;-77
2024/02/06 04:51:15;;;;;;;14.18;6.07;;;6.90;99.90;;;;;;5029911;28;20412;-77
2024/02/06 04:53:41;;;;;;;13.50;5.50;;;6.90;99.90;;;;;;5028486;28;20022;-77
2024/02/06 04:56:07;;;;;;;13.02;6.00;;;6.90;99.90;;;;;;5029858;28;20489;-77
2024/02/06 04:58:33;;;;;;;13.95;6.05;;;6.90;99.90;;;;;;5029644;28;20025;-77
2024/02/06 05:00:58;;;;;;;11.43;6.47;;;6.90;99.90;;;;;;5028605;28;20018;-78
2024/02/06 05:03:24;;;;;;;16.48;5.45;;;6.90;99.90;;;;;;5028481;28;20040;-77
2024/02/06 05:05:50;;;;;;;11.50;5.45;;;6.80;99.90;;;;;;5029298;28;20034;-77
2024/02/06 05:08:15;;;;;;;12.63;7.03;;;6.90;99.90;;;;;;5029565;28;20079;-77
2024/02/06 05:10:41;;;;;;;13.90;5.05;;;6.80;99.90;;;;;;5029760;28;20021;-78
2024/02/06 05:13:07;;;;;;;16.13;5.72;;;6.90;99.90;;;;;;5028180;28;20024;-77
2024/02/06 05:15:33;;;;;;;11.55;5.40;;;6.90;99.90;;;;;;5028414;28;20490;-78
2024/02/06 05:17:59;;;;;;;14.82;5.95;;;6.90;99.90;;;;;;5029366;28;20021;-78
2024/02/06 05:20:25;;;;;;;10.75;4.65;;;6.90;99.90;;;;;;5028499;28;20215;-78
2024/02/06 05:22:51;;;;;;;11.15;6.05;;;6.80;99.90;;;;;;5029232;28;20018;-78
2024/02/06 05:25:17;;;;;;;14.20;6.35;;;6.80;99.90;;;;;;5029549;28;20056;-77
2024/02/06 05:27:42;;;;;;;13.10;5.82;;;6.80;99.90;;;;;;5028597;28;20026;-78
2024/02/06 05:30:08;;;;;;;15.13;6.25;;;6.80;99.90;;;;;;5029329;28;20025;-78
2024/02/06 05:32:36;;;;;;;14.10;6.07;;;6.80;99.90;;;;;;5029244;28;20454;-78
2024/02/06 05:35:03;;;;;;;15.40;7.07;;;6.70;99.90;;;;;;5029300;28;20037;-77
2024/02/06 05:37:29;;;;;;;14.63;6.13;;;6.70;99.90;;;;;;5031441;28;20060;-77
2024/02/06 05:39:54;;;;;;;9.60;5.30;;;6.70;99.90;;;;;;5032854;28;20502;-77
2024/02/06 05:42:20;;;;;;;11.48;6.00;;;6.70;99.90;;;;;;5032780;28;20052;-78
2024/02/06 05:44:46;;;;;;;11.73;5.70;;;6.70;99.90;;;;;;5032589;28;20030;-77
2024/02/06 05:47:12;;;;;;;14.52;6.18;;;6.70;99.90;;;;;;5031187;28;20420;-78
2024/02/06 05:49:38;;;;;;;12.50;6.45;;;6.70;99.90;;;;;;5030913;28;20109;-77
2024/02/06 05:52:04;;;;;;;20.48;7.32;;;6.80;99.90;;;;;;5031518;28;20037;-78
2024/02/06 05:54:29;;;;;;;14.63;5.45;;;6.80;99.90;;;;;;5025156;28;20110;-78
2024/02/06 05:56:55;;;;;;;12.48;5.97;;;6.80;99.90;;;;;;5032001;28;20112;-77
2024/02/06 05:59:23;;;;;;;14.30;5.95;;;6.80;99.90;;;;;;5031038;28;20047;-77
2024/02/06 06:01:49;;;;;;;13.48;5.90;;;6.80;99.90;;;;;;5030756;28;20428;-78
2024/02/06 06:04:15;;;;;;;13.55;5.30;;;6.80;99.90;;;;;;5030571;28;20086;-77
2024/02/06 06:06:42;;;;;;;12.38;5.63;;;6.80;99.90;;;;;;5031341;28;20375;-77
2024/02/06 06:09:09;;;;;;;12.52;5.38;;;6.80;99.90;;;;;;5030064;28;20703;-77
2024/02/06 06:11:35;;;;;;;12.18;6.70;;;6.80;99.90;;;;;;5019054;28;20029;-77
2024/02/06 06:14:01;;;;;;;19.45;5.88;;;6.80;99.90;;;;;;5030885;28;20467;-77
2024/02/06 06:16:27;;;;;;;16.50;7.13;;;6.80;99.90;;;;;;5030206;28;20033;-77
2024/02/06 06:18:53;;;;;;;12.57;5.53;;;6.80;99.90;;;;;;5028236;28;20026;-78
2024/02/06 06:21:18;;;;;;;13.90;6.47;;;6.70;99.90;;;;;;5043843;27;20030;-78
2024/02/06 06:23:44;;;;;;;11.10;4.95;;;6.80;99.90;;;;;;5029594;28;20037;-78
2024/02/06 06:26:10;;;;;;;12.93;5.88;;;6.70;99.90;;;;;;5029020;28;20034;-79
2024/02/06 06:28:35;;;;;;;14.80;5.97;;;6.70;99.90;;;;;;5026298;28;20021;-78
2024/02/06 06:31:01;;;;;;;12.43;5.22;;;6.70;99.90;;;;;;5028373;27;20070;-79
2024/02/06 06:33:33;;;;;;;9.45;5.38;;;6.70;99.90;;;;;;5028345;28;20018;-79
2024/02/06 06:35:59;;;;;;;15.13;5.00;;;6.70;99.90;;;;;;5025959;27;20038;-77
2024/02/06 06:38:25;;;;;;;12.60;5.82;;;6.70;99.90;;;;;;5029552;27;20053;-77
2024/02/06 06:40:50;;;;;;;14.77;6.07;;;6.70;99.90;;;;;;5023900;28;20116;-77
2024/02/06 06:43:16;;;;;;;11.00;4.97;;;6.60;99.90;;;;;;5027465;28;20075;-76
2024/02/06 06:45:42;;;;;;;12.07;5.40;;;6.60;99.90;;;;;;5025699;28;20095;-76
2024/02/06 06:48:08;;;;;;;12.82;5.20;;;6.70;99.90;;;;;;5026383;28;20033;-76
2024/02/06 06:50:33;;;;;;;9.88;4.82;;;6.70;99.90;;;;;;5027561;27;20150;-76
2024/02/06 06:53:00;;;;;;;13.18;5.65;;;6.70;99.90;;;;;;5028458;27;20034;-77
2024/02/06 06:55:26;;;;;;;14.77;7.80;;;6.70;99.90;;;;;;5031089;27;20124;-76
2024/02/06 06:57:51;;;;;;;10.73;5.30;;;6.70;99.90;;;;;;5027434;28;20551;-76
2024/02/06 07:00:17;;;;;;;12.25;4.90;;;6.70;99.90;;;;;;5019239;28;20024;-76
2024/02/06 07:02:43;;;;;;;10.13;5.10;;;6.70;99.90;;;;;;5019364;28;20057;-77
2024/02/06 07:05:12;;;;;;;16.65;5.55;;;6.80;99.90;;;;;;5028736;28;20474;-77
2024/02/06 07:07:38;;;;;;;12.50;5.32;;;6.80;99.90;;;;;;5028792;27;20128;-76
2024/02/06 07:10:05;;;;;;;11.95;3.75;;;6.80;99.90;;;;;;5027508;28;20135;-76
2024/02/06 07:12:32;;;;;;;11.43;5.15;;;6.80;99.90;;;;;;5013432;28;20102;-76
2024/02/06 07:14:58;;;;;;;10.52;5.07;;;6.80;99.90;;;;;;5042075;28;20030;-76
2024/02/06 07:17:24;;;;;;;13.68;5.30;;;6.80;99.90;;;;;;5027695;28;20038;-76
2024/02/06 07:19:49;;;;;;;10.70;4.95;;;6.80;99.90;;;;;;5028282;28;20410;-76
2024/02/06 07:22:15;;;;;;;14.57;6.18;;;6.80;99.90;;;;;;5026946;28;20034;-77
2024/02/06 07:24:41;;;;;;;11.68;5.13;;;6.80;99.90;;;;;;5029901;27;20024;-76
2024/02/06 07:27:06;;;;;;;9.98;4.82;;;6.80;99.90;;;;;;5031052;27;20034;-77
2024/02/06 07:29:32;;;;;;;7.10;4.30;;;6.80;99.90;;;;;;5028258;28;20116;-77
2024/02/06 07:31:58;;;;;;;8.60;4.90;;;6.80;99.90;;;;;;5024604;27;20021;-77
2024/02/06 07:34:24;;;;;;;11.57;4.82;;;6.80;99.90;;;;;;5021851;28;20050;-77
2024/02/06 07:36:49;;;;;;;11.50;4.30;;;6.80;99.90;;;;;;5024344;27;20068;-78
2024/02/06 07:39:15;;;;;;;12.73;5.00;;;6.80;99.90;;;;;;5029791;28;20599;-77
2024/02/06 07:41:41;;;;;;;14.18;4.85;;;6.80;99.90;;;;;;5020908;28;20403;-77
2024/02/06 07:44:10;;;;;;;8.40;4.07;;;6.90;99.90;;;;;;5020723;28;20056;-77
2024/02/06 07:46:36;;;;;;;11.85;4.90;;;7.00;99.90;;;;;;5033661;27;20117;-77
2024/02/06 07:49:01;;;;;;;11.88;4.65;;;7.00;99.90;;;;;;5029514;28;20071;-77
2024/02/06 07:51:27;;;;;;;10.23;4.95;;;7.00;99.90;;;;;;5028825;28;20022;-78
2024/02/06 07:53:54;;;;;;;9.18;4.65;;;7.10;99.90;;;;;;5029236;27;20045;-77
2024/02/06 07:56:20;;;;;;;11.48;4.53;;;7.10;99.90;;;;;;5029524;28;20033;-78
2024/02/06 07:58:48;;;;;;;9.77;4.25;;;7.20;96.80;;;;;;5022453;28;20029;-77
2024/02/06 08:01:15;;;;;;;11.07;5.38;;;7.20;96.80;;;;;;5029865;27;20462;-77
2024/02/06 08:03:40;;;;;;;14.93;6.25;;;7.20;95.50;;;;;;5024466;28;20478;-77
2024/02/06 08:06:06;;;;;;;9.65;5.85;;;7.20;96.50;;;;;;5029619;28;20128;-77
2024/02/06 08:08:32;;;;;;;7.35;4.53;;;7.30;94.50;;;;;;5025009;28;20033;-77
2024/02/06 08:10:58;;;;;;;15.65;5.55;;;7.20;93.90;;;;;;5013142;28;20386;-77
2024/02/06 08:13:23;;;;;;;11.35;6.40;;;7.20;94.20;;;;;;5025905;27;20033;-77
2024/02/06 08:15:49;;;;;;;9.63;5.15;;;7.30;93.80;;;;;;5028026;28;20029;-77
2024/02/06 08:18:15;;;;;;;13.07;5.18;;;7.40;94.90;;;;;;5029355;28;20448;-77
2024/02/06 08:20:41;;;;;;;9.82;6.43;;;7.50;94.90;;;;;;5027262;28;20021;-77
2024/02/06 08:23:08;;;;;;;8.88;4.68;;;7.50;92.90;;;;;;5027488;27;20030;-77
2024/02/06 08:25:35;;;;;;;14.35;6.75;;;7.50;92.70;;;;;;5026333;28;20025;-77
2024/02/06 08:28:00;;;;;;;12.90;6.18;;;7.60;92.20;;;;;;5021323;28;20483;-77
2024/02/06 08:30:26;;;;;;;19.08;5.32;;;7.60;91.60;;;;;;5027240;28;20037;-77
2024/02/06 08:32:52;;;;;;;11.35;5.82;;;7.60;91.80;;;;;;5028267;28;20032;-77
2024/02/06 08:35:18;;;;;;;13.13;5.40;;;7.60;91.70;;;;;;5016377;28;20038;-77
2024/02/06 08:37:43;;;;;;;11.05;5.15;;;7.60;90.20;;;;;;5026745;27;20530;-77
2024/02/06 08:40:10;;;;;;;9.32;5.25;;;7.70;90.00;;;;;;5020114;28;20540;-77
2024/02/06 08:42:36;;;;;;;10.07;5.10;;;7.70;93.00;;;;;;5040550;28;20054;-77
2024/02/06 08:45:04;;;;;;;11.60;4.85;;;7.60;91.20;;;;;;5025896;28;20042;-77
2024/02/06 08:47:29;;;;;;;14.15;5.05;;;7.60;91.50;;;;;;5027465;28;20021;-77
2024/02/06 08:49:55;;;;;;;9.80;5.30;;;7.60;93.20;;;;;;5028635;27;20037;-78
2024/02/06 08:52:22;;;;;;;15.45;4.93;;;7.60;93.50;;;;;;5024741;28;20044;-78
2024/02/06 08:54:47;;;;;;;9.70;4.80;;;7.60;91.00;;;;;;5028499;27;20053;-77
2024/02/06 08:57:13;;;;;;;11.55;5.43;;;7.70;90.70;;;;;;5029146;28;20033;-77
2024/02/06 08:59:39;;;;;;;8.75;4.85;;;7.70;89.20;;;;;;5028367;28;20090;-78
2024/02/06 09:02:05;;;;;;;9.85;6.05;;;7.70;89.20;;;;;;5026526;27;20064;-78
2024/02/06 09:04:31;;;;;;;23.80;6.53;;;7.80;88.10;;;;;;5027750;28;20483;-78
2024/02/06 09:06:58;;;;;;;9.48;5.40;;;7.90;89.50;;;;;;5027172;28;20066;-78
2024/02/06 09:09:24;;;;;;;17.35;8.25;;;7.90;87.60;;;;;;5027526;27;20061;-78
2024/02/06 09:11:51;;;;;;;13.60;8.02;;;7.90;88.40;;;;;;5030255;28;20064;-78
2024/02/06 09:14:17;;;;;;;18.50;12.07;;;8.00;88.80;;;;;;5006004;28;20046;-78
2024/02/06 09:16:42;;;;;;;14.60;8.02;;;8.00;87.10;;;;;;5024159;28;20403;-78
2024/02/06 09:19:08;;;;;;;22.58;11.80;;;8.00;85.30;;;;;;5027197;27;20036;-78
2024/02/06 09:21:34;;;;;;;20.67;12.55;;;7.90;85.80;;;;;;5026556;28;20022;-78
2024/02/06 09:24:00;;;;;;;13.20;10.05;;;7.90;85.90;;;;;;5027669;27;20026;-78
2024/02/06 09:26:26;;;;;;;17.98;9.95;;;7.90;85.80;;;;;;5027729;28;20022;-78
2024/02/06 09:28:52;;;;;;;19.17;9.70;;;8.00;86.60;;;;;;5018142;27;20038;-77
2024/02/06 09:31:17;;;;;;;13.85;8.68;;;8.00;84.90;;;;;;5027222;28;20033;-77
2024/02/06 09:33:43;;;;;;;11.07;6.25;;;8.00;86.00;;;;;;5025532;28;20435;-78
2024/02/06 09:36:09;;;;;;;13.90;7.35;;;7.90;83.60;;;;;;5024894;28;20113;-78
2024/02/06 09:38:35;;;;;;;17.35;7.57;;;7.90;84.30;;;;;;5026824;28;20018;-78
2024/02/06 09:41:01;;;;;;;12.07;5.90;;;8.10;84.90;;;;;;5027596;28;20073;-78
2024/02/06 09:43:28;;;;;;;13.48;6.35;;;8.00;83.00;;;;;;5012160;27;20101;-77
2024/02/06 09:45:54;;;;;;;20.10;8.63;;;8.20;83.90;;;;;;5026471;28;20013;-78
2024/02/06 09:48:24;;;;;;;11.18;6.13;;;8.10;82.90;;;;;;5026175;28;20029;-78
2024/02/06 09:50:54;;;;;;;14.32;6.00;;;8.20;82.20;;;;;;5027781;27;20026;-78
2024/02/06 09:53:22;;;;;;;18.83;7.22;;;8.30;83.70;;;;;;5028113;28;20049;-78
2024/02/06 09:55:48;;;;;;;17.40;8.20;;;8.30;82.80;;;;;;5022460;28;20042;-77
2024/02/06 09:58:16;;;;;;;12.43;6.88;;;8.30;81.20;;;;;;5027308;28;20492;-77
2024/02/06 10:00:45;;;;;;;11.70;6.13;;;8.20;80.80;;;;;;5020431;28;20113;-77
2024/02/06 10:03:17;;;;;;;15.20;6.90;;;8.30;81.10;;;;;;5029691;28;20462;-78
2024/02/06 10:05:46;;;;;;;12.98;6.60;;;8.40;80.70;;;;;;5021728;27;20042;-77
2024/02/06 10:08:12;;;;;;;11.40;5.80;;;8.30;79.80;;;;;;5024484;28;20427;-77
2024/02/06 10:10:45;;;;;;;10.77;6.00;;;8.30;80.00;;;;;;5021860;27;20102;-78
2024/02/06 10:13:11;;;;;;;;;;;8.20;79.70;;;;;;5017993;28;20121;-78
2024/02/06 10:15:37;;;;;;;9.35;5.05;;;8.20;79.50;;;;;;5018650;28;19943;-78
2024/02/06 10:18:04;;;;;;;10.30;5.13;;;8.20;79.50;;;;;;5025874;28;20025;-78
2024/02/06 10:20:49;;;;;;;10.18;5.30;;;8.20;80.20;;;;;;5023599;28;20037;-78
2024/02/06 10:23:19;;;;;;;12.10;6.43;;;8.20;79.80;;;;;;5027707;28;20030;-78
2024/02/06 10:25:46;;;;;;;11.52;5.20;;;8.20;79.90;;;;;;5023717;28;20492;-77
2024/02/06 10:28:23;;;;;;;8.82;5.38;;;8.20;79.50;;;;;;5029461;28;20155;-78
2024/02/06 10:30:49;;;;;;;7.88;5.25;;;8.20;79.80;;;;;;5028614;28;20033;-78
2024/02/06 10:33:16;;;;;;;15.20;5.55;;;8.10;80.00;;;;;;5030466;28;20403;-77
2024/02/06 10:35:42;;;;;;;15.18;6.35;;;8.20;80.50;;;;;;5029146;28;20105;-78
2024/02/06 10:38:15;;;;;;;13.32;5.93;;;8.10;80.00;;;;;;5023086;28;20475;-78
2024/02/06 10:40:45;;;;;;;9.70;5.25;;;8.10;79.60;;;;;;5029627;28;20029;-79
2024/02/06 10:43:11;;;;;;;10.77;5.88;;;8.20;80.40;;;;;;5025847;27;20505;-78
2024/02/06 10:45:38;;;;;;;15.35;6.38;;;8.20;80.20;;;;;;5027951;28;20133;-78
2024/02/06 10:48:04;;;;;;;16.75;7.22;;;8.20;80.10;;;;;;5023145;28;20486;-78
2024/02/06 10:50:31;;;;;;;22.10;8.05;;;8.10;80.10;;;;;;5029203;27;20038;-78
2024/02/06 10:52:58;;;;;;;15.70;5.93;;;8.10;80.40;;;;;;5030783;28;20033;-78
2024/02/06 10:55:24;;;;;;;12.57;5.95;;;8.10;80.70;;;;;;5030275;27;20122;-78
2024/02/06 10:58:06;;;;;;;10.05;5.00;;;8.00;79.60;;;;;;5025494;28;20030;-78
2024/02/06 11:00:36;;;;;;;9.00;5.03;;;7.90;79.40;;;;;;5029384;28;20021;-78
2024/02/06 11:03:08;;;;;;;15.27;6.90;;;7.90;80.10;;;;;;5029008;28;20070;-78
2024/02/06 11:05:40;;;;;;;11.15;6.35;;;7.90;80.00;;;;;;5028592;27;20030;-78
2024/02/06 11:08:18;;;;;;;16.70;5.50;;;7.90;80.10;;;;;;5025162;28;20064;-77
2024/02/06 11:10:47;;;;;;;9.70;4.70;;;7.80;80.20;;;;;;5024535;27;20108;-77
2024/02/06 11:13:46;;;;;;;12.18;6.57;;;7.80;80.50;;;;;;5028989;28;20024;-78
2024/02/06 11:16:15;;;;;;;10.40;5.10;;;7.80;80.60;;;;;;5025174;27;20372;-78
2024/02/06 11:18:55;;;;;;;11.32;5.43;;;7.80;80.90;;;;;;5030211;27;20049;-78
2024/02/06 11:21:23;;;;;;;11.85;6.25;;;7.80;80.30;;;;;;5025357;28;20562;-78
2024/02/06 11:23:50;;;;;;;13.75;5.88;;;7.80;81.20;;;;;;5026161;28;20017;-78
2024/02/06 11:26:18;;;;;;;11.20;5.10;;;7.70;80.50;;;;;;5025631;28;20146;-77
2024/02/06 11:28:45;;;;;;;9.50;4.78;;;7.70;80.70;;;;;;5023513;28;20118;-77
2024/02/06 11:31:12;;;;;;;9.60;5.07;;;7.70;81.40;;;;;;5025181;28;20498;-77
2024/02/06 11:33:38;;;;;;;9.20;4.80;;;7.70;81.00;;;;;;5026261;28;20045;-77
2024/02/06 11:36:13;;;;;;;11.65;4.75;;;7.70;81.40;;;;;;5028885;27;20087;-77
2024/02/06 11:38:39;;;;;;;9.73;4.63;;;7.70;80.90;;;;;;5029299;28;20033;-77
2024/02/06 11:41:14;;;;;;;10.68;5.43;;;7.70;81.20;;;;;;5032206;27;20033;-77
2024/02/06 11:43:40;;;;;;;8.63;5.80;;;7.90;81.60;;;;;;5020231;28;20017;-77
2024/02/06 11:46:09;;;;;;;13.43;5.65;;;7.90;82.20;;;;;;5026709;28;20049;-78
2024/02/06 11:48:35;;;;;;;12.63;5.45;;;7.90;81.20;;;;;;5029408;28;20025;-77
2024/02/06 11:51:01;;;;;;;9.75;5.05;;;7.90;81.10;;;;;;5026898;28;20386;-77
2024/02/06 11:53:28;;;;;;;11.77;6.65;;;7.90;79.80;;;;;;5028844;27;20033;-78
2024/02/06 11:56:02;;;;;;;7.13;4.78;;;7.90;80.50;;;;;;5027303;28;20057;-77
2024/02/06 11:58:28;;;;;;;17.45;6.72;;;7.90;81.00;;;;;;5025175;28;20038;-78
2024/02/06 12:00:58;;;;;;;10.20;5.63;;;7.90;81.30;;;;;;5028886;28;20018;-78
2024/02/06 12:03:24;;;;;;;9.95;5.18;;;7.90;80.20;;;;;;5027632;28;20037;-77
2024/02/06 12:05:50;;;;;;;11.13;4.65;;;7.90;80.00;;;;;;5028317;28;20025;-78
2024/02/06 12:08:20;;;;;;;14.23;5.82;;;7.90;81.20;;;;;;5028086;28;20033;-78
2024/02/06 12:10:47;;;;;;;12.70;5.35;;;7.90;80.60;;;;;;5027950;28;20029;-78
2024/02/06 12:13:13;;;;;;;12.23;4.88;;;7.90;81.40;;;;;;5029177;27;20033;-77
2024/02/06 12:15:40;;;;;;;21.52;9.55;;;7.90;81.20;;;;;;5028070;27;20043;-77
2024/02/06 12:18:08;;;;;;;111.15;47.92;;;7.80;80.20;;;;;;5029229;27;20037;-77
2024/02/06 12:20:35;;;;;;;106.22;45.80;;;7.80;80.60;;;;;;5026035;27;20524;-77
2024/02/06 12:23:03;;;;;;;50.40;21.70;;;7.80;81.20;;;;;;5023405;27;20030;-77
2024/02/06 12:25:33;;;;;;;89.15;38.13;;;7.80;80.70;;;;;;5010341;28;20090;-77
2024/02/06 12:28:14;;;;;;;117.38;45.05;;;7.80;82.00;;;;;;5027536;28;20634;-77
2024/02/06 12:30:41;;;;;;;68.38;26.35;;;7.80;81.70;;;;;;5028372;27;20467;-77
2024/02/06 12:33:07;;;;;;;42.70;16.70;;;7.80;81.10;;;;;;5018209;28;20490;-77
2024/02/06 12:35:34;;;;;;;56.53;25.67;;;7.90;81.80;;;;;;5023669;28;20030;-76
2024/02/06 12:38:01;;;;;;;29.55;14.27;;;7.90;80.50;;;;;;5022731;28;20045;-77
2024/02/06 12:40:32;;;;;;;26.05;11.23;;;7.90;80.10;;;;;;5029288;28;20025;-78
2024/02/06 12:43:01;;;;;;;50.10;21.90;;;7.90;79.80;;;;;;5015616;28;20502;-77
2024/02/06 12:45:29;;;;;;;22.10;10.57;;;7.90;79.50;;;;;;5027772;28;20033;-77